sensor_id;sensor_type;location;lat;lon;timestamp;P1;durP1;ratioP1;P2;durP2;ratioP2
8407;SDS011;4241;48.452;9.216;2023-02-15T00:01:18;285.93;;;89.63;;
8407;SDS011;4241;48.452;9.216;2023-02-15T00:03:46;284.40;;;89.03;;
8407;SDS011;4241;48.452;9.216;2023-02-15T00:06:14;284.70;;;89.10;;
8407;SDS011;4241;48.452;9.216;2023-02-15T00:08:41;281.60;;;87.63;;
8407;SDS011;4241;48.452;9.216;2023-02-15T00:11:09;280.90;;;87.67;;
8407;SDS011;4241;48.452;9.216;2023-02-15T00:13:37;279.87;;;87.90;;
8407;SDS011;4241;48.452;9.216;2023-02-15T00:16:07;284.13;;;90.43;;
8407;SDS011;4241;48.452;9.216;2023-02-15T00:18:36;277.23;;;87.23;;
8407;SDS011;4241;48.452;9.216;2023-02-15T00:21:05;279.63;;;88.43;;
8407;SDS011;4241;48.452;9.216;2023-02-15T00:23:33;275.40;;;87.13;;
8407;SDS011;4241;48.452;9.216;2023-02-15T00:26:04;274.83;;;87.13;;
8407;SDS011;4241;48.452;9.216;2023-02-15T00:28:32;274.27;;;87.63;;
8407;SDS011;4241;48.452;9.216;2023-02-15T00:31:02;275.13;;;87.80;;
8407;SDS011;4241;48.452;9.216;2023-02-15T00:33:30;270.47;;;85.90;;
8407;SDS011;4241;48.452;9.216;2023-02-15T00:35:57;270.47;;;86.23;;
8407;SDS011;4241;48.452;9.216;2023-02-15T00:38:25;269.77;;;85.63;;
8407;SDS011;4241;48.452;9.216;2023-02-15T00:40:53;270.13;;;85.63;;
8407;SDS011;4241;48.452;9.216;2023-02-15T00:43:20;269.70;;;85.23;;
8407;SDS011;4241;48.452;9.216;2023-02-15T00:45:46;279.77;;;90.73;;
8407;SDS011;4241;48.452;9.216;2023-02-15T00:48:13;269.87;;;86.03;;
8407;SDS011;4241;48.452;9.216;2023-02-15T00:50:40;269.43;;;85.73;;
8407;SDS011;4241;48.452;9.216;2023-02-15T00:53:08;266.27;;;84.37;;
8407;SDS011;4241;48.452;9.216;2023-02-15T00:55:36;270.93;;;86.90;;
8407;SDS011;4241;48.452;9.216;2023-02-15T00:58:04;270.77;;;86.50;;
8407;SDS011;4241;48.452;9.216;2023-02-15T01:00:31;268.50;;;84.87;;
8407;SDS011;4241;48.452;9.216;2023-02-15T01:02:58;268.70;;;85.67;;
8407;SDS011;4241;48.452;9.216;2023-02-15T01:05:25;269.67;;;86.20;;
8407;SDS011;4241;48.452;9.216;2023-02-15T01:07:51;265.37;;;83.77;;
8407;SDS011;4241;48.452;9.216;2023-02-15T01:10:18;269.30;;;85.53;;
8407;SDS011;4241;48.452;9.216;2023-02-15T01:12:46;265.77;;;84.53;;
8407;SDS011;4241;48.452;9.216;2023-02-15T01:15:13;267.70;;;85.63;;
8407;SDS011;4241;48.452;9.216;2023-02-15T01:17:43;269.00;;;85.97;;
8407;SDS011;4241;48.452;9.216;2023-02-15T01:20:16;265.77;;;85.00;;
8407;SDS011;4241;48.452;9.216;2023-02-15T01:22:43;267.40;;;85.67;;
8407;SDS011;4241;48.452;9.216;2023-02-15T01:25:09;264.93;;;84.40;;
8407;SDS011;4241;48.452;9.216;2023-02-15T01:27:36;262.17;;;83.47;;
8407;SDS011;4241;48.452;9.216;2023-02-15T01:30:05;265.60;;;85.00;;
8407;SDS011;4241;48.452;9.216;2023-02-15T01:32:33;265.27;;;85.20;;
8407;SDS011;4241;48.452;9.216;2023-02-15T01:35:00;259.43;;;83.87;;
8407;SDS011;4241;48.452;9.216;2023-02-15T01:37:29;261.20;;;84.53;;
8407;SDS011;4241;48.452;9.216;2023-02-15T01:39:56;257.90;;;83.40;;
8407;SDS011;4241;48.452;9.216;2023-02-15T01:42:25;259.17;;;83.77;;
8407;SDS011;4241;48.452;9.216;2023-02-15T01:44:54;259.93;;;85.10;;
8407;SDS011;4241;48.452;9.216;2023-02-15T01:47:25;257.87;;;84.07;;
8407;SDS011;4241;48.452;9.216;2023-02-15T01:50:01;257.43;;;83.33;;
8407;SDS011;4241;48.452;9.216;2023-02-15T01:52:32;252.80;;;82.20;;
8407;SDS011;4241;48.452;9.216;2023-02-15T01:55:03;254.30;;;82.83;;
8407;SDS011;4241;48.452;9.216;2023-02-15T01:57:30;253.13;;;82.23;;
8407;SDS011;4241;48.452;9.216;2023-02-15T01:59:58;254.93;;;83.27;;
8407;SDS011;4241;48.452;9.216;2023-02-15T02:02:29;255.03;;;84.07;;
8407;SDS011;4241;48.452;9.216;2023-02-15T02:04:58;252.10;;;82.63;;
8407;SDS011;4241;48.452;9.216;2023-02-15T02:07:28;247.37;;;80.73;;
8407;SDS011;4241;48.452;9.216;2023-02-15T02:09:57;248.70;;;81.43;;
8407;SDS011;4241;48.452;9.216;2023-02-15T02:12:24;249.23;;;82.33;;
8407;SDS011;4241;48.452;9.216;2023-02-15T02:14:52;248.97;;;81.93;;
8407;SDS011;4241;48.452;9.216;2023-02-15T02:17:21;248.17;;;80.73;;
8407;SDS011;4241;48.452;9.216;2023-02-15T02:20:17;249.33;;;81.73;;
8407;SDS011;4241;48.452;9.216;2023-02-15T02:23:15;245.67;;;81.20;;
8407;SDS011;4241;48.452;9.216;2023-02-15T02:29:12;242.63;;;80.20;;
8407;SDS011;4241;48.452;9.216;2023-02-15T02:35:07;242.63;;;80.83;;
8407;SDS011;4241;48.452;9.216;2023-02-15T02:37:41;246.17;;;81.70;;
8407;SDS011;4241;48.452;9.216;2023-02-15T02:40:15;245.13;;;81.20;;
8407;SDS011;4241;48.452;9.216;2023-02-15T02:42:49;244.83;;;80.43;;
8407;SDS011;4241;48.452;9.216;2023-02-15T02:45:23;246.27;;;81.53;;
8407;SDS011;4241;48.452;9.216;2023-02-15T02:47:55;247.43;;;82.37;;
8407;SDS011;4241;48.452;9.216;2023-02-15T02:50:29;244.13;;;80.43;;
8407;SDS011;4241;48.452;9.216;2023-02-15T02:52:56;243.60;;;80.03;;
8407;SDS011;4241;48.452;9.216;2023-02-15T02:55:25;242.80;;;80.10;;
8407;SDS011;4241;48.452;9.216;2023-02-15T02:57:57;243.63;;;81.33;;
8407;SDS011;4241;48.452;9.216;2023-02-15T03:00:29;256.77;;;87.40;;
8407;SDS011;4241;48.452;9.216;2023-02-15T03:03:01;243.10;;;80.23;;
8407;SDS011;4241;48.452;9.216;2023-02-15T03:05:33;242.27;;;81.00;;
8407;SDS011;4241;48.452;9.216;2023-02-15T03:08:02;239.70;;;79.57;;
8407;SDS011;4241;48.452;9.216;2023-02-15T03:10:34;238.93;;;79.23;;
8407;SDS011;4241;48.452;9.216;2023-02-15T03:13:03;240.30;;;80.37;;
8407;SDS011;4241;48.452;9.216;2023-02-15T03:15:30;240.90;;;79.83;;
8407;SDS011;4241;48.452;9.216;2023-02-15T03:18:14;236.70;;;79.23;;
8407;SDS011;4241;48.452;9.216;2023-02-15T03:20:45;239.20;;;80.10;;
8407;SDS011;4241;48.452;9.216;2023-02-15T03:23:15;238.00;;;79.13;;
8407;SDS011;4241;48.452;9.216;2023-02-15T03:25:45;253.17;;;86.97;;
8407;SDS011;4241;48.452;9.216;2023-02-15T03:28:17;238.27;;;80.40;;
8407;SDS011;4241;48.452;9.216;2023-02-15T03:30:48;235.17;;;78.33;;
8407;SDS011;4241;48.452;9.216;2023-02-15T03:33:18;233.37;;;77.47;;
8407;SDS011;4241;48.452;9.216;2023-02-15T03:35:52;246.33;;;84.27;;
8407;SDS011;4241;48.452;9.216;2023-02-15T03:38:25;232.97;;;78.30;;
8407;SDS011;4241;48.452;9.216;2023-02-15T03:40:57;231.10;;;77.73;;
8407;SDS011;4241;48.452;9.216;2023-02-15T03:43:40;231.33;;;78.03;;
8407;SDS011;4241;48.452;9.216;2023-02-15T03:46:15;232.30;;;78.20;;
8407;SDS011;4241;48.452;9.216;2023-02-15T03:48:51;234.23;;;78.90;;
8407;SDS011;4241;48.452;9.216;2023-02-15T03:51:22;232.80;;;79.23;;
8407;SDS011;4241;48.452;9.216;2023-02-15T03:54:00;229.40;;;77.30;;
8407;SDS011;4241;48.452;9.216;2023-02-15T03:56:29;231.20;;;78.20;;
8407;SDS011;4241;48.452;9.216;2023-02-15T03:58:57;231.70;;;78.07;;
8407;SDS011;4241;48.452;9.216;2023-02-15T04:01:54;237.40;;;81.87;;
8407;SDS011;4241;48.452;9.216;2023-02-15T04:04:29;228.37;;;77.13;;
8407;SDS011;4241;48.452;9.216;2023-02-15T04:07:03;231.13;;;78.37;;
8407;SDS011;4241;48.452;9.216;2023-02-15T04:09:32;229.90;;;77.97;;
8407;SDS011;4241;48.452;9.216;2023-02-15T04:12:16;224.80;;;75.83;;
8407;SDS011;4241;48.452;9.216;2023-02-15T04:14:43;228.57;;;77.53;;
8407;SDS011;4241;48.452;9.216;2023-02-15T04:17:27;226.37;;;77.00;;
8407;SDS011;4241;48.452;9.216;2023-02-15T04:19:54;228.70;;;77.83;;
8407;SDS011;4241;48.452;9.216;2023-02-15T04:22:40;223.10;;;75.93;;
8407;SDS011;4241;48.452;9.216;2023-02-15T04:25:24;223.57;;;75.77;;
8407;SDS011;4241;48.452;9.216;2023-02-15T04:27:51;227.17;;;77.03;;
8407;SDS011;4241;48.452;9.216;2023-02-15T04:30:20;227.57;;;76.67;;
8407;SDS011;4241;48.452;9.216;2023-02-15T04:32:48;227.93;;;77.57;;
8407;SDS011;4241;48.452;9.216;2023-02-15T04:35:16;225.77;;;76.33;;
8407;SDS011;4241;48.452;9.216;2023-02-15T04:37:44;227.90;;;76.90;;
8407;SDS011;4241;48.452;9.216;2023-02-15T04:40:13;228.57;;;77.13;;
8407;SDS011;4241;48.452;9.216;2023-02-15T04:42:41;235.27;;;80.67;;
8407;SDS011;4241;48.452;9.216;2023-02-15T04:45:08;233.20;;;80.20;;
8407;SDS011;4241;48.452;9.216;2023-02-15T04:47:34;231.93;;;78.37;;
8407;SDS011;4241;48.452;9.216;2023-02-15T04:50:01;231.27;;;78.43;;
8407;SDS011;4241;48.452;9.216;2023-02-15T04:52:29;231.03;;;78.53;;
8407;SDS011;4241;48.452;9.216;2023-02-15T04:54:57;225.97;;;77.30;;
8407;SDS011;4241;48.452;9.216;2023-02-15T04:57:24;224.17;;;76.13;;
8407;SDS011;4241;48.452;9.216;2023-02-15T04:59:50;228.07;;;78.53;;
8407;SDS011;4241;48.452;9.216;2023-02-15T05:02:17;226.33;;;77.37;;
8407;SDS011;4241;48.452;9.216;2023-02-15T05:04:44;223.20;;;75.97;;
8407;SDS011;4241;48.452;9.216;2023-02-15T05:07:11;222.10;;;75.57;;
8407;SDS011;4241;48.452;9.216;2023-02-15T05:09:39;223.97;;;76.70;;
8407;SDS011;4241;48.452;9.216;2023-02-15T05:12:07;260.33;;;92.70;;
8407;SDS011;4241;48.452;9.216;2023-02-15T05:14:34;223.67;;;76.53;;
8407;SDS011;4241;48.452;9.216;2023-02-15T05:17:01;218.63;;;74.87;;
8407;SDS011;4241;48.452;9.216;2023-02-15T05:19:30;227.57;;;77.77;;
8407;SDS011;4241;48.452;9.216;2023-02-15T05:21:56;229.93;;;79.87;;
8407;SDS011;4241;48.452;9.216;2023-02-15T05:24:23;227.67;;;78.30;;
8407;SDS011;4241;48.452;9.216;2023-02-15T05:27:09;220.23;;;75.30;;
8407;SDS011;4241;48.452;9.216;2023-02-15T05:29:54;219.90;;;75.83;;
8407;SDS011;4241;48.452;9.216;2023-02-15T05:32:21;219.60;;;75.90;;
8407;SDS011;4241;48.452;9.216;2023-02-15T05:34:48;223.27;;;77.37;;
8407;SDS011;4241;48.452;9.216;2023-02-15T05:37:15;219.33;;;75.83;;
8407;SDS011;4241;48.452;9.216;2023-02-15T05:39:41;221.53;;;76.47;;
8407;SDS011;4241;48.452;9.216;2023-02-15T05:42:10;218.70;;;75.07;;
8407;SDS011;4241;48.452;9.216;2023-02-15T05:44:36;216.27;;;73.80;;
8407;SDS011;4241;48.452;9.216;2023-02-15T05:47:03;224.30;;;77.20;;
8407;SDS011;4241;48.452;9.216;2023-02-15T05:49:32;226.03;;;78.07;;
8407;SDS011;4241;48.452;9.216;2023-02-15T05:51:59;220.60;;;76.00;;
8407;SDS011;4241;48.452;9.216;2023-02-15T05:54:26;222.07;;;77.40;;
8407;SDS011;4241;48.452;9.216;2023-02-15T05:56:53;229.07;;;80.23;;
8407;SDS011;4241;48.452;9.216;2023-02-15T05:59:21;220.27;;;75.27;;
8407;SDS011;4241;48.452;9.216;2023-02-15T06:01:48;223.77;;;77.53;;
8407;SDS011;4241;48.452;9.216;2023-02-15T06:04:15;220.23;;;75.80;;
8407;SDS011;4241;48.452;9.216;2023-02-15T06:06:42;225.33;;;78.13;;
8407;SDS011;4241;48.452;9.216;2023-02-15T06:09:09;235.40;;;81.30;;
8407;SDS011;4241;48.452;9.216;2023-02-15T06:11:36;223.43;;;77.17;;
8407;SDS011;4241;48.452;9.216;2023-02-15T06:14:03;225.37;;;77.13;;
8407;SDS011;4241;48.452;9.216;2023-02-15T06:16:31;225.37;;;78.73;;
8407;SDS011;4241;48.452;9.216;2023-02-15T06:18:58;218.73;;;75.37;;
8407;SDS011;4241;48.452;9.216;2023-02-15T06:21:26;219.00;;;75.30;;
8407;SDS011;4241;48.452;9.216;2023-02-15T06:23:53;223.80;;;77.33;;
8407;SDS011;4241;48.452;9.216;2023-02-15T06:26:20;218.63;;;74.47;;
8407;SDS011;4241;48.452;9.216;2023-02-15T06:28:47;240.83;;;84.70;;
8407;SDS011;4241;48.452;9.216;2023-02-15T06:31:14;217.37;;;74.23;;
8407;SDS011;4241;48.452;9.216;2023-02-15T06:33:42;222.43;;;77.17;;
8407;SDS011;4241;48.452;9.216;2023-02-15T06:36:09;221.77;;;75.97;;
8407;SDS011;4241;48.452;9.216;2023-02-15T06:38:36;219.97;;;75.50;;
8407;SDS011;4241;48.452;9.216;2023-02-15T06:41:02;220.50;;;74.77;;
8407;SDS011;4241;48.452;9.216;2023-02-15T06:43:29;222.90;;;77.50;;
8407;SDS011;4241;48.452;9.216;2023-02-15T06:45:56;220.80;;;75.93;;
8407;SDS011;4241;48.452;9.216;2023-02-15T06:48:24;223.20;;;76.50;;
8407;SDS011;4241;48.452;9.216;2023-02-15T06:50:52;230.63;;;79.73;;
8407;SDS011;4241;48.452;9.216;2023-02-15T06:53:19;228.70;;;79.33;;
8407;SDS011;4241;48.452;9.216;2023-02-15T06:55:45;241.37;;;85.70;;
8407;SDS011;4241;48.452;9.216;2023-02-15T06:58:12;223.23;;;76.77;;
8407;SDS011;4241;48.452;9.216;2023-02-15T07:00:39;223.70;;;76.37;;
8407;SDS011;4241;48.452;9.216;2023-02-15T07:03:06;226.43;;;76.67;;
8407;SDS011;4241;48.452;9.216;2023-02-15T07:05:33;229.40;;;78.70;;
8407;SDS011;4241;48.452;9.216;2023-02-15T07:08:02;245.10;;;84.87;;
8407;SDS011;4241;48.452;9.216;2023-02-15T07:10:29;248.90;;;87.00;;
8407;SDS011;4241;48.452;9.216;2023-02-15T07:12:56;231.97;;;79.57;;
8407;SDS011;4241;48.452;9.216;2023-02-15T07:15:22;229.03;;;78.33;;
8407;SDS011;4241;48.452;9.216;2023-02-15T07:17:49;235.83;;;80.73;;
8407;SDS011;4241;48.452;9.216;2023-02-15T07:20:17;235.27;;;80.87;;
8407;SDS011;4241;48.452;9.216;2023-02-15T07:22:45;229.97;;;78.20;;
8407;SDS011;4241;48.452;9.216;2023-02-15T07:25:13;231.10;;;78.77;;
8407;SDS011;4241;48.452;9.216;2023-02-15T07:27:41;236.23;;;80.87;;
8407;SDS011;4241;48.452;9.216;2023-02-15T07:30:09;234.90;;;80.37;;
8407;SDS011;4241;48.452;9.216;2023-02-15T07:32:37;229.87;;;77.83;;
8407;SDS011;4241;48.452;9.216;2023-02-15T07:35:24;231.43;;;78.83;;
8407;SDS011;4241;48.452;9.216;2023-02-15T07:37:51;230.67;;;78.67;;
8407;SDS011;4241;48.452;9.216;2023-02-15T07:40:20;236.10;;;80.77;;
8407;SDS011;4241;48.452;9.216;2023-02-15T07:42:48;234.30;;;79.13;;
8407;SDS011;4241;48.452;9.216;2023-02-15T07:45:17;235.50;;;80.20;;
8407;SDS011;4241;48.452;9.216;2023-02-15T07:47:44;238.07;;;81.07;;
8407;SDS011;4241;48.452;9.216;2023-02-15T07:50:11;240.87;;;81.33;;
8407;SDS011;4241;48.452;9.216;2023-02-15T07:52:38;243.80;;;82.97;;
8407;SDS011;4241;48.452;9.216;2023-02-15T07:55:05;236.40;;;79.70;;
8407;SDS011;4241;48.452;9.216;2023-02-15T07:57:35;244.73;;;82.97;;
8407;SDS011;4241;48.452;9.216;2023-02-15T08:00:01;239.70;;;80.40;;
8407;SDS011;4241;48.452;9.216;2023-02-15T08:02:29;240.53;;;81.00;;
8407;SDS011;4241;48.452;9.216;2023-02-15T08:04:55;242.50;;;81.33;;
8407;SDS011;4241;48.452;9.216;2023-02-15T08:07:22;238.67;;;79.70;;
8407;SDS011;4241;48.452;9.216;2023-02-15T08:09:49;250.50;;;85.27;;
8407;SDS011;4241;48.452;9.216;2023-02-15T08:12:16;241.13;;;79.93;;
8407;SDS011;4241;48.452;9.216;2023-02-15T08:14:44;243.37;;;80.50;;
8407;SDS011;4241;48.452;9.216;2023-02-15T08:17:11;246.33;;;81.73;;
8407;SDS011;4241;48.452;9.216;2023-02-15T08:19:37;248.57;;;83.23;;
8407;SDS011;4241;48.452;9.216;2023-02-15T08:22:05;247.63;;;82.23;;
8407;SDS011;4241;48.452;9.216;2023-02-15T08:24:35;256.13;;;86.53;;
8407;SDS011;4241;48.452;9.216;2023-02-15T08:27:03;244.27;;;81.13;;
8407;SDS011;4241;48.452;9.216;2023-02-15T08:29:31;246.20;;;81.57;;
8407;SDS011;4241;48.452;9.216;2023-02-15T08:32:00;246.23;;;82.40;;
8407;SDS011;4241;48.452;9.216;2023-02-15T08:34:30;243.47;;;80.37;;
8407;SDS011;4241;48.452;9.216;2023-02-15T08:36:59;248.00;;;82.60;;
8407;SDS011;4241;48.452;9.216;2023-02-15T08:39:26;248.67;;;82.93;;
8407;SDS011;4241;48.452;9.216;2023-02-15T08:41:53;249.83;;;82.77;;
8407;SDS011;4241;48.452;9.216;2023-02-15T08:44:20;254.57;;;83.77;;
8407;SDS011;4241;48.452;9.216;2023-02-15T08:46:47;259.93;;;86.67;;
8407;SDS011;4241;48.452;9.216;2023-02-15T08:49:17;259.00;;;85.83;;
8407;SDS011;4241;48.452;9.216;2023-02-15T08:51:46;262.27;;;86.37;;
8407;SDS011;4241;48.452;9.216;2023-02-15T08:54:14;261.17;;;85.67;;
8407;SDS011;4241;48.452;9.216;2023-02-15T08:56:43;268.17;;;87.63;;
8407;SDS011;4241;48.452;9.216;2023-02-15T08:59:12;270.10;;;86.67;;
8407;SDS011;4241;48.452;9.216;2023-02-15T09:01:41;271.00;;;86.97;;
8407;SDS011;4241;48.452;9.216;2023-02-15T09:04:09;273.27;;;87.40;;
8407;SDS011;4241;48.452;9.216;2023-02-15T09:06:39;278.50;;;88.60;;
8407;SDS011;4241;48.452;9.216;2023-02-15T09:09:08;293.63;;;94.33;;
8407;SDS011;4241;48.452;9.216;2023-02-15T09:11:35;289.57;;;92.00;;
8407;SDS011;4241;48.452;9.216;2023-02-15T09:14:04;288.33;;;91.00;;
8407;SDS011;4241;48.452;9.216;2023-02-15T09:16:33;289.40;;;90.87;;
8407;SDS011;4241;48.452;9.216;2023-02-15T09:19:02;299.43;;;95.00;;
8407;SDS011;4241;48.452;9.216;2023-02-15T09:21:30;296.37;;;93.73;;
8407;SDS011;4241;48.452;9.216;2023-02-15T09:24:00;301.37;;;94.50;;
8407;SDS011;4241;48.452;9.216;2023-02-15T09:26:38;308.20;;;96.33;;
8407;SDS011;4241;48.452;9.216;2023-02-15T09:29:06;309.97;;;96.43;;
8407;SDS011;4241;48.452;9.216;2023-02-15T09:31:36;316.10;;;97.07;;
8407;SDS011;4241;48.452;9.216;2023-02-15T09:34:04;321.97;;;100.10;;
8407;SDS011;4241;48.452;9.216;2023-02-15T09:36:32;326.77;;;100.97;;
8407;SDS011;4241;48.452;9.216;2023-02-15T09:39:03;329.80;;;101.53;;
8407;SDS011;4241;48.452;9.216;2023-02-15T09:41:42;330.37;;;99.83;;
8407;SDS011;4241;48.452;9.216;2023-02-15T09:44:33;336.87;;;102.43;;
8407;SDS011;4241;48.452;9.216;2023-02-15T09:47:16;347.87;;;104.53;;
8407;SDS011;4241;48.452;9.216;2023-02-15T09:50:03;365.80;;;108.77;;
8407;SDS011;4241;48.452;9.216;2023-02-15T09:52:38;380.10;;;111.50;;
8407;SDS011;4241;48.452;9.216;2023-02-15T09:55:19;384.87;;;113.00;;
8407;SDS011;4241;48.452;9.216;2023-02-15T09:57:57;389.87;;;114.83;;
8407;SDS011;4241;48.452;9.216;2023-02-15T10:00:33;395.20;;;116.53;;
8407;SDS011;4241;48.452;9.216;2023-02-15T10:03:11;398.67;;;118.03;;
8407;SDS011;4241;48.452;9.216;2023-02-15T10:05:50;410.23;;;126.37;;
8407;SDS011;4241;48.452;9.216;2023-02-15T10:08:32;402.73;;;119.83;;
8407;SDS011;4241;48.452;9.216;2023-02-15T10:11:19;403.47;;;119.27;;
8407;SDS011;4241;48.452;9.216;2023-02-15T10:14:10;407.43;;;121.70;;
8407;SDS011;4241;48.452;9.216;2023-02-15T10:16:46;412.10;;;124.40;;
8407;SDS011;4241;48.452;9.216;2023-02-15T10:19:23;413.03;;;123.63;;
8407;SDS011;4241;48.452;9.216;2023-02-15T10:22:03;417.47;;;126.03;;
8407;SDS011;4241;48.452;9.216;2023-02-15T10:24:48;418.67;;;125.27;;
8407;SDS011;4241;48.452;9.216;2023-02-15T10:27:30;420.27;;;125.97;;
8407;SDS011;4241;48.452;9.216;2023-02-15T10:30:02;426.90;;;128.77;;
8407;SDS011;4241;48.452;9.216;2023-02-15T10:32:35;429.70;;;130.73;;
8407;SDS011;4241;48.452;9.216;2023-02-15T10:35:10;432.80;;;131.50;;
8407;SDS011;4241;48.452;9.216;2023-02-15T10:37:49;434.77;;;132.80;;
8407;SDS011;4241;48.452;9.216;2023-02-15T10:40:32;436.47;;;132.37;;
8407;SDS011;4241;48.452;9.216;2023-02-15T10:43:23;475.20;;;167.63;;
8407;SDS011;4241;48.452;9.216;2023-02-15T10:46:11;439.60;;;134.30;;
8407;SDS011;4241;48.452;9.216;2023-02-15T10:48:53;443.27;;;137.30;;
8407;SDS011;4241;48.452;9.216;2023-02-15T10:51:39;443.93;;;136.77;;
8407;SDS011;4241;48.452;9.216;2023-02-15T10:54:19;447.97;;;142.03;;
8407;SDS011;4241;48.452;9.216;2023-02-15T10:56:55;446.00;;;140.07;;
8407;SDS011;4241;48.452;9.216;2023-02-15T10:59:47;446.00;;;139.93;;
8407;SDS011;4241;48.452;9.216;2023-02-15T11:02:25;446.97;;;141.13;;
8407;SDS011;4241;48.452;9.216;2023-02-15T11:05:07;443.87;;;137.80;;
8407;SDS011;4241;48.452;9.216;2023-02-15T11:07:51;447.77;;;141.17;;
8407;SDS011;4241;48.452;9.216;2023-02-15T11:10:24;448.50;;;143.00;;
8407;SDS011;4241;48.452;9.216;2023-02-15T11:12:56;450.47;;;145.50;;
8407;SDS011;4241;48.452;9.216;2023-02-15T11:15:26;452.17;;;145.77;;
8407;SDS011;4241;48.452;9.216;2023-02-15T11:17:58;456.57;;;150.57;;
8407;SDS011;4241;48.452;9.216;2023-02-15T11:20:30;450.90;;;146.87;;
8407;SDS011;4241;48.452;9.216;2023-02-15T11:23:07;455.47;;;151.00;;
8407;SDS011;4241;48.452;9.216;2023-02-15T11:25:41;466.07;;;160.67;;
8407;SDS011;4241;48.452;9.216;2023-02-15T11:28:13;487.40;;;179.77;;
8407;SDS011;4241;48.452;9.216;2023-02-15T11:30:47;451.00;;;147.10;;
8407;SDS011;4241;48.452;9.216;2023-02-15T11:33:18;453.30;;;149.67;;
8407;SDS011;4241;48.452;9.216;2023-02-15T11:35:48;454.73;;;151.50;;
8407;SDS011;4241;48.452;9.216;2023-02-15T11:38:19;454.80;;;150.67;;
8407;SDS011;4241;48.452;9.216;2023-02-15T11:40:48;454.93;;;152.07;;
8407;SDS011;4241;48.452;9.216;2023-02-15T11:43:19;458.03;;;154.20;;
8407;SDS011;4241;48.452;9.216;2023-02-15T11:45:54;462.67;;;159.43;;
8407;SDS011;4241;48.452;9.216;2023-02-15T11:48:21;457.63;;;153.30;;
8407;SDS011;4241;48.452;9.216;2023-02-15T11:50:47;461.50;;;159.20;;
8407;SDS011;4241;48.452;9.216;2023-02-15T11:53:15;457.10;;;155.50;;
8407;SDS011;4241;48.452;9.216;2023-02-15T11:55:44;459.67;;;158.73;;
8407;SDS011;4241;48.452;9.216;2023-02-15T11:58:16;457.40;;;154.77;;
8407;SDS011;4241;48.452;9.216;2023-02-15T12:00:55;458.30;;;155.63;;
8407;SDS011;4241;48.452;9.216;2023-02-15T12:03:33;456.70;;;154.97;;
8407;SDS011;4241;48.452;9.216;2023-02-15T12:06:12;459.37;;;157.43;;
8407;SDS011;4241;48.452;9.216;2023-02-15T12:08:46;457.30;;;155.30;;
8407;SDS011;4241;48.452;9.216;2023-02-15T12:11:19;457.33;;;156.03;;
8407;SDS011;4241;48.452;9.216;2023-02-15T12:13:55;456.60;;;154.33;;
8407;SDS011;4241;48.452;9.216;2023-02-15T12:16:25;459.63;;;154.63;;
8407;SDS011;4241;48.452;9.216;2023-02-15T12:18:53;456.97;;;154.03;;
8407;SDS011;4241;48.452;9.216;2023-02-15T12:21:26;458.10;;;156.03;;
8407;SDS011;4241;48.452;9.216;2023-02-15T12:23:56;455.90;;;152.70;;
8407;SDS011;4241;48.452;9.216;2023-02-15T12:26:27;456.70;;;153.93;;
8407;SDS011;4241;48.452;9.216;2023-02-15T12:28:55;453.00;;;149.20;;
8407;SDS011;4241;48.452;9.216;2023-02-15T12:31:28;452.33;;;149.17;;
8407;SDS011;4241;48.452;9.216;2023-02-15T12:34:00;452.60;;;147.83;;
8407;SDS011;4241;48.452;9.216;2023-02-15T12:36:31;452.70;;;147.87;;
8407;SDS011;4241;48.452;9.216;2023-02-15T12:39:19;453.53;;;148.83;;
8407;SDS011;4241;48.452;9.216;2023-02-15T12:41:57;450.77;;;147.00;;
8407;SDS011;4241;48.452;9.216;2023-02-15T12:44:27;449.23;;;144.63;;
8407;SDS011;4241;48.452;9.216;2023-02-15T12:46:57;450.07;;;145.80;;
8407;SDS011;4241;48.452;9.216;2023-02-15T12:49:26;452.07;;;146.67;;
8407;SDS011;4241;48.452;9.216;2023-02-15T12:51:54;448.60;;;143.33;;
8407;SDS011;4241;48.452;9.216;2023-02-15T12:54:26;447.70;;;143.13;;
8407;SDS011;4241;48.452;9.216;2023-02-15T12:56:57;449.00;;;144.97;;
8407;SDS011;4241;48.452;9.216;2023-02-15T12:59:24;449.37;;;144.97;;
8407;SDS011;4241;48.452;9.216;2023-02-15T13:01:51;448.57;;;145.43;;
8407;SDS011;4241;48.452;9.216;2023-02-15T13:04:23;447.27;;;142.87;;
8407;SDS011;4241;48.452;9.216;2023-02-15T13:06:52;447.63;;;143.80;;
8407;SDS011;4241;48.452;9.216;2023-02-15T13:09:24;457.77;;;152.20;;
8407;SDS011;4241;48.452;9.216;2023-02-15T13:12:08;445.93;;;142.50;;
8407;SDS011;4241;48.452;9.216;2023-02-15T13:14:42;446.00;;;142.43;;
8407;SDS011;4241;48.452;9.216;2023-02-15T13:17:10;447.43;;;143.37;;
8407;SDS011;4241;48.452;9.216;2023-02-15T13:19:42;446.97;;;143.37;;
8407;SDS011;4241;48.452;9.216;2023-02-15T13:22:13;448.30;;;144.63;;
8407;SDS011;4241;48.452;9.216;2023-02-15T13:24:43;446.70;;;142.67;;
8407;SDS011;4241;48.452;9.216;2023-02-15T13:27:13;446.77;;;144.03;;
8407;SDS011;4241;48.452;9.216;2023-02-15T13:29:42;446.80;;;143.83;;
8407;SDS011;4241;48.452;9.216;2023-02-15T13:32:12;444.47;;;139.97;;
8407;SDS011;4241;48.452;9.216;2023-02-15T13:34:51;445.43;;;142.27;;
8407;SDS011;4241;48.452;9.216;2023-02-15T13:37:22;450.00;;;146.00;;
8407;SDS011;4241;48.452;9.216;2023-02-15T13:40:02;445.10;;;141.53;;
8407;SDS011;4241;48.452;9.216;2023-02-15T13:42:37;444.70;;;141.80;;
8407;SDS011;4241;48.452;9.216;2023-02-15T13:45:09;447.40;;;144.47;;
8407;SDS011;4241;48.452;9.216;2023-02-15T13:47:49;445.93;;;143.77;;
8407;SDS011;4241;48.452;9.216;2023-02-15T13:50:34;445.47;;;143.03;;
8407;SDS011;4241;48.452;9.216;2023-02-15T13:53:17;443.53;;;140.87;;
8407;SDS011;4241;48.452;9.216;2023-02-15T13:55:53;451.37;;;147.77;;
8407;SDS011;4241;48.452;9.216;2023-02-15T13:58:31;454.13;;;153.43;;
8407;SDS011;4241;48.452;9.216;2023-02-15T14:01:08;446.00;;;142.93;;
8407;SDS011;4241;48.452;9.216;2023-02-15T14:03:42;445.70;;;143.17;;
8407;SDS011;4241;48.452;9.216;2023-02-15T14:06:35;444.80;;;142.60;;
8407;SDS011;4241;48.452;9.216;2023-02-15T14:09:11;443.40;;;141.57;;
8407;SDS011;4241;48.452;9.216;2023-02-15T14:11:46;442.53;;;140.63;;
8407;SDS011;4241;48.452;9.216;2023-02-15T14:17:17;446.43;;;145.13;;
8407;SDS011;4241;48.452;9.216;2023-02-15T14:19:51;444.23;;;141.33;;
8407;SDS011;4241;48.452;9.216;2023-02-15T14:22:25;444.60;;;141.40;;
8407;SDS011;4241;48.452;9.216;2023-02-15T14:24:59;441.87;;;138.50;;
8407;SDS011;4241;48.452;9.216;2023-02-15T14:27:43;450.40;;;147.20;;
8407;SDS011;4241;48.452;9.216;2023-02-15T14:30:20;444.97;;;141.20;;
8407;SDS011;4241;48.452;9.216;2023-02-15T14:32:52;443.50;;;140.43;;
8407;SDS011;4241;48.452;9.216;2023-02-15T14:35:21;445.83;;;142.17;;
8407;SDS011;4241;48.452;9.216;2023-02-15T14:37:52;444.37;;;140.63;;
8407;SDS011;4241;48.452;9.216;2023-02-15T14:40:29;445.60;;;142.77;;
8407;SDS011;4241;48.452;9.216;2023-02-15T14:43:20;442.90;;;139.23;;
8407;SDS011;4241;48.452;9.216;2023-02-15T14:45:58;442.33;;;139.60;;
8407;SDS011;4241;48.452;9.216;2023-02-15T14:48:30;448.33;;;144.60;;
8407;SDS011;4241;48.452;9.216;2023-02-15T14:50:59;447.93;;;145.03;;
8407;SDS011;4241;48.452;9.216;2023-02-15T14:56:22;443.90;;;141.07;;
8407;SDS011;4241;48.452;9.216;2023-02-15T14:58:55;445.07;;;141.27;;
8407;SDS011;4241;48.452;9.216;2023-02-15T15:01:42;445.10;;;141.00;;
8407;SDS011;4241;48.452;9.216;2023-02-15T15:04:22;444.73;;;142.47;;
8407;SDS011;4241;48.452;9.216;2023-02-15T15:06:58;443.10;;;140.20;;
8407;SDS011;4241;48.452;9.216;2023-02-15T15:09:29;444.23;;;141.37;;